Beaverton, OR

2:19 PM PDT en Octubre 24, 2014 (GMT -0700)
Walker/217 | Change Station
CLOSE
Current Station
Estación meteorológica personal
Location: Beaverton, OR
Altura: 223 ft
Estaciones meteorológicas cercanas
Aviso en curso: Special Statement

Alt 223 ft 45.50 °N, 122.79 °W | Updated 2 seconds ago

Lluvia
Lluvia
55.8 ° F
Sensación térmica 55.8 ° F
N
0.0
Viento Variable Viento desde Norte
Gusts 0.0 mph

Hoy
Alta -- | Baja -- ° F
--% Posibilidad de precipitaciones
Ayer
Alta -- | Baja -- ° F
Precip. -- pul
7:39 AM 6:10 PM
Luna nueva, 1% visible
Presión 29.91 pul
Visibilidad 7.0 Millas
Nubes Nublado 8500 ft
Punto de rocío 52 ° F
Humedad 86%
Precipitaciones 0.00 pul
Espesor de la nieve No disponible.
UV 1 de una escala de 12
Polen .40 de una escala de 12
Ozono Buena
PM2.5 Buena
Flu Activity Sporadic
METAR KHIO 242053Z 00000KT 7SM -RA OVC085 13/11 A2991 RMK AO2 RAB50 SLP127 P0000 60000 T01280106 58022

More Conditions Fewer Conditions

Presión 29.91 pul
Visibilidad 7.0 Millas
Nubes Nublado 8500 ft
Punto de rocío 52 ° F
Humedad 86%
Precipitaciones 0.00 pul
Espesor de la nieve No disponible.
UV 1 de una escala de 12
Polen .40 de una escala de 12
Ozono Buena
PM2.5 Buena
Flu Activity Sporadic
METAR KHIO 242053Z 00000KT 7SM -RA OVC085 13/11 A2991 RMK AO2 RAB50 SLP127 P0000 60000 T01280106 58022

More Conditions Fewer Conditions

10-Day Weather Forecast

Almanac

Astronomía

Oct. 24, 2014 Salida Puesta
Hora real 7:39 AM PDT 6:10 PM PDT
Crepúsculo civil 7:09 AM PDT 6:40 PM PDT
Crepúsculo náutico 6:34 AM PDT 7:15 PM PDT
Crepúsculo astronómico 6:00 AM PDT 7:49 PM PDT
Luna 8:26 AM PDT 6:51 PM PDT
Horas de luz 11h 31m
Horas de luz
10h 30m
Tomorrow will be 2m 58s shorter.
Luna nueva, 1% of the Moon is Illuminated
Hoy
Luna nueva
Oct 30
Cuarto creciente
Nov 6
Luna llena
Nov 14
Cuarto menguante
Nov 22
Nueva

Extremos de hoy

Máximos del estado Bajos del estado

Community

WunderPhotos

Upload Photos

1,764,659 ¡fotos cargadas!

WunderBlogs® & News

By Dr. Jeff Masters
Director of Meteorology, Weather Underground
By Kari Strenfel
Meteorologist, Weather Underground
By Christopher C. Burt
Weather Historian, Weather Underground
October 24, 2014
October 24, 2014
October 24, 2014

Nearby

Calidad del aire

  Calidad del aire Índice AQ Contaminante
Ayer Buena
PM2.5
Ayer Buena
OZONE
Real Buena
PM2.5
Real Buena
OZONE
Viernes Buena
PM2.5
Sábado Buena
PM2.5

Grosos de nieve

Estación Profundido Altura
Seine Creek 0 in 2000 ft
North Fork 0 in 3120 ft
Peavine Ridge 0 in 3500 ft
Greenpoint 0 in 3200 ft
Mud Ridge 0 in 3800 ft

Actividad de terremotos

Ciudad Distance Mag. Tiempo y dato
No hay informes recientes de la actividad sísmica.
Magnitud mínima muestra es 2,5.

Temperaturas de aguas costeras

Lugar Temperatura
Sin partes meteorológicos de las estaciones

Estaciones meteorológicas cercanas